Terminal Aerodrome Forecast
Issued by NWS Pendleton, OR

Current Version | Previous Version | Text Only | Print | Product List | Glossary On
Versions: 1 2 3 4 5 6 7 8 9 10 11 12 13 14 15 16 17 18 19 20 21
000
FTUS46 KPDT 242329
TAFPDT
TAF
KPDT 242329Z 2500/2524 26020G30KT P6SM VCSH BKN045 BKN070
     FM250300 25018G27KT P6SM BKN050 OVC150
     FM251500 23015G25KT P6SM BKN040 OVC080
     FM252100 23013KT 5SM -SHRASN OVC035=

USA.gov is the U.S. government's official web portal to all federal, state and local government web resources and services.